Thornton, United Kingdom
Current Conditions -  °F | °C
As of 10:20 AM on Thursday 18 Dec 2014 (Local Time) from EGPH Reporting Station
Rain Showers Rain Showers  
Wind Chill: 45°   Ceiling: 900
Heat Index: 48°   Visibility: 2.5mi
Dew Point: 46°   Wind: 7mph
Humidity: 93%   Direction: 300°WNW
Pressure: 29.29"   Gusts: NA
Location:  56.17°N, 3.15°W
Report Text: EGPH 181020Z 30006KT 260V010 4000 -SHRA SCT005 BKN009 BKN014 09/08 Q0992
Loading
Personal Weather Stations






























Interactive Weather Map New forecast layout! Learn more

10-Day Weather Forecast

Advertisements
Track Severe Weather on mobile